LCRA/AKT METAR and TAF weather

Enter ICAO airport designator
Station Type Date Time Source
LCRA METAR 2020/10/20 16:50 UTC NOAA

LCRA 201650Z 27013KT CAVOK 26/18 Q1015 NOSIG RMK BLU BLU


Station Type Date Time Source
LCRA Decoded METAR 2020/10/20 16:50 UTC NOAA

Akrotiri, Cyprus (LCRA) 34-35N 032-59E 0M
Oct 20, 2020 - 12:50 PM EDT / 2020.10.20 1650 UTC
Wind: from the W (270 degrees) at 15 MPH (13 KT):0
Visibility: greater than 7 mile(s):0
Temperature: 78 F (26 C)
Dew Point: 64 F (18 C)
Relative Humidity: 61%
Pressure (altimeter): 29.97 in. Hg (1015 hPa)
ob: LCRA 201650Z 27013KT CAVOK 26/18 Q1015 NOSIG RMK BLU BLU
cycle: 17

Station Type Date Time Source
LCRA TAF 2020/10/20 18:05 UTC NOAA

TAF LCRA 201601Z 2018/2112 24005KT CAVOK
BECMG 2100/2103 05006KT
BECMG 2109/2111 23013KT

Example: see airport list